»·PEaware :: UAL1513 KSFO-KEUG

UAL1513 :: KSFO-KEUG

FLIGHT INFORMATION

Flight Status: Arrived
Operator:
United Airlines
More flights by this operator :: More flights under this callsign
Pilot: Anonymous 20536 (20536)
Aircraft: BOEING 737-800
(B738)
More flights by this aircraft type
Origin: KSFO San Francisco Intl
United States
Destination: KEUG Mahlon Sweet
United States
More flights between these airports :: More routes between these airports
Route: TRUKN2 GRTFL EUG
File this flight plan on PilotEdge
Remarks:
Altitude:
(Current/Filed)
38,000ft
Speed:
(Current/Filed)
380kts
Departed: 27-Sep-18 11:14 AM
Arrived: 27-Sep-18 01:01 PM
Distance/Time
Traveled:
392nm/1:47
Distance/Time
To Go:
Arrived

Flight Plot

Page will automatically refresh every two minutes.

Flight plan parsing failed; only flown route is shown


Map Options




Map Legend


Flown Route
Filed Route
Departure Airport
Arrival Airport
Navaid (VOR, NDB)
Fix

Horizontal Profiles

Position Reports

Time Latitude Longitude Heading Altitude Ground
Speed
27-Sep-18 11:06 37.619187 -122.383519 291 20ft 0kts
27-Sep-18 11:07 37.619187 -122.383519 291 20ft 0kts
27-Sep-18 11:08 37.619187 -122.383519 291 20ft 0kts
27-Sep-18 11:09 37.619187 -122.383519 291 20ft 0kts
27-Sep-18 11:10 37.619064 -122.383195 318 20ft 2kts
27-Sep-18 11:11 37.618607 -122.383152 29 21ft 0kts
27-Sep-18 11:12 37.618607 -122.383152 29 20ft 0kts
27-Sep-18 11:13 37.618724 -122.380105 137 20ft 20kts
27-Sep-18 11:14 37.613509 -122.381687 207 21ft 20kts
27-Sep-18 11:15 37.609062 -122.383407 124 21ft 16kts
27-Sep-18 11:16 37.628083 -122.369382 24 542ft 161kts
27-Sep-18 11:17 37.664162 -122.316662 55 2673ft 247kts
27-Sep-18 11:18 37.707289 -122.239742 41 5996ft 284kts
27-Sep-18 11:19 37.783192 -122.215564 358 9492ft 300kts
27-Sep-18 11:20 37.871672 -122.218494 358 12140ft 337kts
27-Sep-18 11:21 37.966765 -122.221135 359 15114ft 351kts
27-Sep-18 11:22 38.048983 -122.223335 359 17417ft 362kts
27-Sep-18 11:23 38.165716 -122.226439 358 20320ft 376kts
27-Sep-18 11:24 38.253506 -122.228780 358 22268ft 385kts
27-Sep-18 11:25 38.379527 -122.234875 351 24713ft 396kts
27-Sep-18 11:26 38.489502 -122.254292 351 26560ft 407kts
27-Sep-18 11:27 38.583288 -122.270371 351 27960ft 415kts
27-Sep-18 11:28 38.718002 -122.293468 352 29947ft 421kts
27-Sep-18 11:29 38.814242 -122.309973 351 31502ft 418kts
27-Sep-18 11:30 38.947735 -122.332882 351 33449ft 415kts
27-Sep-18 11:31 39.041856 -122.349035 351 34697ft 412kts
27-Sep-18 11:32 39.153497 -122.368198 350 36056ft 409kts
27-Sep-18 11:33 39.265727 -122.387466 350 37227ft 409kts
27-Sep-18 11:34 39.377561 -122.406678 350 38003ft 417kts
27-Sep-18 11:35 39.495806 -122.426970 350 38021ft 446kts
27-Sep-18 11:36 39.643534 -122.452321 350 38009ft 471kts
27-Sep-18 11:37 39.751004 -122.470774 350 38007ft 472kts
27-Sep-18 11:38 39.879866 -122.492909 350 38007ft 468kts
27-Sep-18 11:39 40.008188 -122.514957 350 38007ft 469kts
27-Sep-18 11:40 40.135682 -122.536865 350 38007ft 469kts
27-Sep-18 11:41 40.264728 -122.559040 350 38008ft 469kts
27-Sep-18 11:42 40.392825 -122.581059 350 37987ft 467kts
27-Sep-18 11:43 40.521620 -122.603198 350 37989ft 467kts
27-Sep-18 11:44 40.650092 -122.625285 350 37988ft 467kts
27-Sep-18 11:45 40.778655 -122.647389 350 38044ft 467kts
27-Sep-18 11:48 37.619186 -122.383519 291 20ft 0kts
27-Sep-18 11:49 37.619186 -122.383519 291 20ft 0kts
27-Sep-18 11:50 37.619185 -122.383519 291 20ft 0kts
27-Sep-18 11:51 37.618902 -122.383084 347 20ft 2kts
27-Sep-18 11:52 37.618610 -122.383157 29 20ft 0kts
27-Sep-18 11:53 37.618740 -122.383029 40 20ft 5kts
27-Sep-18 11:54 37.619368 -122.381315 114 20ft 18kts
27-Sep-18 11:55 37.614666 -122.380918 208 20ft 22kts
27-Sep-18 11:56 37.609511 -122.384097 147 20ft 14kts
27-Sep-18 11:57 37.621683 -122.373695 25 133ft 158kts
27-Sep-18 11:58 37.658263 -122.327374 55 2373ft 246kts
27-Sep-18 11:59 37.700003 -122.249610 50 6028ft 284kts
27-Sep-18 12:00 37.772915 -122.215933 359 9841ft 303kts
27-Sep-18 12:01 37.863760 -122.218319 358 12690ft 340kts
27-Sep-18 12:02 37.959622 -122.220971 359 15959ft 355kts
27-Sep-18 12:03 38.059816 -122.223691 358 18916ft 371kts
27-Sep-18 12:04 38.159804 -122.226380 358 21567ft 382kts
27-Sep-18 12:05 38.267008 -122.229281 358 24100ft 392kts
27-Sep-18 12:06 38.377213 -122.234641 351 26279ft 404kts
27-Sep-18 12:07 38.489494 -122.254308 351 28000ft 420kts
27-Sep-18 12:08 38.604508 -122.274019 351 28513ft 421kts
27-Sep-18 12:09 38.720230 -122.293860 351 30702ft 421kts
27-Sep-18 12:10 38.835245 -122.313590 351 32799ft 416kts
27-Sep-18 12:11 38.948807 -122.333077 351 34649ft 413kts
27-Sep-18 12:12 39.061358 -122.352393 350 36293ft 409kts
27-Sep-18 12:13 39.172482 -122.371467 350 37645ft 409kts
27-Sep-18 12:14 39.287519 -122.391232 350 38021ft 435kts
27-Sep-18 12:15 39.411663 -122.412523 350 38005ft 468kts
27-Sep-18 12:16 39.541083 -122.434731 350 37989ft 472kts
27-Sep-18 12:17 39.670485 -122.456955 350 37989ft 471kts
27-Sep-18 12:18 39.800414 -122.479270 350 37989ft 470kts
27-Sep-18 12:19 39.929157 -122.501390 350 37990ft 469kts
27-Sep-18 12:20 40.057629 -122.523464 350 37989ft 469kts
27-Sep-18 12:21 40.184265 -122.545225 350 37989ft 469kts
27-Sep-18 12:22 40.313273 -122.567392 350 37985ft 467kts
27-Sep-18 12:23 40.441665 -122.589465 350 37969ft 467kts
27-Sep-18 12:24 40.570191 -122.611560 350 37970ft 467kts
27-Sep-18 12:25 40.698597 -122.633636 350 38034ft 466kts
27-Sep-18 12:26 40.825303 -122.655421 350 38043ft 463kts
27-Sep-18 12:27 40.953203 -122.677426 350 38046ft 465kts
27-Sep-18 12:28 41.080640 -122.699340 350 38069ft 463kts
27-Sep-18 12:29 41.202890 -122.720368 350 38137ft 464kts
27-Sep-18 12:30 41.330059 -122.742245 350 38135ft 459kts
27-Sep-18 12:31 41.456973 -122.764085 350 38139ft 465kts
27-Sep-18 12:32 41.584995 -122.786104 350 38137ft 463kts
27-Sep-18 12:33 41.712457 -122.808038 350 38137ft 464kts
27-Sep-18 12:34 41.839290 -122.829861 350 38135ft 459kts
27-Sep-18 12:35 41.961781 -122.850899 350 38107ft 414kts
27-Sep-18 12:36 42.073908 -122.870257 350 37050ft 408kts
27-Sep-18 12:37 42.183466 -122.889118 350 34397ft 410kts
27-Sep-18 12:38 42.297745 -122.908789 351 31641ft 420kts
27-Sep-18 12:39 42.411897 -122.928426 351 29147ft 410kts
27-Sep-18 12:40 42.522973 -122.947549 351 26639ft 398kts
27-Sep-18 12:41 42.631101 -122.966168 351 24177ft 387kts
27-Sep-18 12:42 42.734703 -122.984012 351 22648ft 372kts
27-Sep-18 12:43 42.835377 -123.001331 350 21140ft 359kts
27-Sep-18 12:44 42.933327 -123.018213 350 19635ft 351kts
27-Sep-18 12:45 43.026854 -123.034303 350 18090ft 329kts
27-Sep-18 12:46 43.112293 -123.049013 350 16892ft 307kts
27-Sep-18 12:47 43.194672 -123.063226 350 15447ft 300kts
27-Sep-18 12:48 43.276390 -123.077312 350 14044ft 293kts
27-Sep-18 12:49 43.356817 -123.091177 350 12632ft 289kts
27-Sep-18 12:50 43.435577 -123.104752 351 11291ft 285kts
27-Sep-18 12:51 43.513766 -123.118232 351 9917ft 283kts
27-Sep-18 12:52 43.591022 -123.131519 352 8986ft 265kts
27-Sep-18 12:53 43.659475 -123.143270 351 8998ft 242kts
27-Sep-18 12:54 43.725219 -123.154581 352 8076ft 235kts
27-Sep-18 12:55 43.788937 -123.165564 352 6450ft 228kts
27-Sep-18 12:56 43.850575 -123.176221 353 5004ft 218kts
27-Sep-18 12:57 43.902439 -123.210360 344 3972ft 197kts
27-Sep-18 12:58 43.954549 -123.215882 358 3386ft 185kts
27-Sep-18 12:59 44.005509 -123.217019 359 2439ft 181kts
27-Sep-18 13:00 44.048915 -123.217735 0 1598ft 142kts
27-Sep-18 13:01 44.088197 -123.218438 358 941ft 141kts
27-Sep-18 13:02 44.124831 -123.219023 0 382ft 98kts
27-Sep-18 13:03 44.129896 -123.217823 134 382ft 0kts
27-Sep-18 13:04 44.125880 -123.217086 180 381ft 21kts
27-Sep-18 13:05 44.120782 -123.214526 167 382ft 12kts

Navigation Log

Ident Type
Flight plan parsing failed, navigation log unavailable